Time;durP1;ratioP1;P1;durP2;ratioP2;P2;SDS_P1;SDS_P2;PMS_P1;PMS_P2;Temp;Humidity;BMP_temperature;BMP_pressure;BME280_temperature;BME280_humidity;BME280_pressure;Samples;Min_cycle;Max_cycle;Signal;HPM_P1;HPM_P2
2023/12/13 00:01:39;;;;;;;19.27;3.10;;;11.30;99.90;;;;;;7308417;19;21110;-82
2023/12/13 00:04:05;;;;;;;16.90;2.40;;;11.40;99.90;;;;;;7287299;19;20187;-81
2023/12/13 00:06:31;;;;;;;18.77;2.00;;;11.30;99.90;;;;;;7286118;19;20186;-82
2023/12/13 00:08:57;;;;;;;14.67;2.30;;;11.30;99.90;;;;;;7285301;19;20263;-82
2023/12/13 00:11:23;;;;;;;21.87;2.40;;;11.30;99.90;;;;;;7285186;19;20671;-82
2023/12/13 00:13:49;;;;;;;16.00;2.23;;;11.40;99.90;;;;;;7286836;19;20184;-82
2023/12/13 00:16:15;;;;;;;16.97;2.43;;;11.50;99.90;;;;;;7286631;19;20195;-82
2023/12/13 00:18:41;;;;;;;18.20;2.50;;;11.50;99.90;;;;;;7307843;19;20190;-82
2023/12/13 00:21:08;;;;;;;15.73;2.43;;;11.50;99.90;;;;;;7285376;19;20198;-82
2023/12/13 00:23:34;;;;;;;11.80;1.90;;;11.50;99.90;;;;;;7285393;19;20336;-82
2023/12/13 00:26:00;;;;;;;15.47;2.27;;;11.40;99.90;;;;;;7285530;19;20215;-82
2023/12/13 00:28:26;;;;;;;19.43;2.43;;;11.30;99.90;;;;;;7285227;19;20194;-82
2023/12/13 00:30:51;;;;;;;19.20;2.30;;;11.40;99.90;;;;;;7283601;19;20268;-82
2023/12/13 00:33:17;;;;;;;14.27;2.00;;;11.40;99.90;;;;;;7285762;19;20824;-82
2023/12/13 00:35:43;;;;;;;14.00;2.23;;;11.40;99.90;;;;;;7293700;19;20192;-79
2023/12/13 00:38:09;;;;;;;19.97;2.60;;;11.40;99.90;;;;;;7308434;19;20183;-80
2023/12/13 00:40:34;;;;;;;16.43;2.67;;;11.30;99.90;;;;;;7284454;19;20203;-80
2023/12/13 00:43:01;;;;;;;20.03;2.57;;;11.40;99.90;;;;;;7282676;19;20188;-82
2023/12/13 00:45:28;;;;;;;17.10;2.73;;;11.40;99.90;;;;;;7285164;19;20220;-82
2023/12/13 00:47:54;;;;;;;20.23;2.70;;;11.40;99.90;;;;;;7285318;19;20705;-80
2023/12/13 00:50:20;;;;;;;18.33;2.53;;;11.50;99.90;;;;;;7285698;19;20200;-79
2023/12/13 00:52:45;;;;;;;16.37;2.60;;;11.50;99.90;;;;;;7283825;19;20224;-80
2023/12/13 00:55:11;;;;;;;17.07;2.37;;;11.60;99.90;;;;;;7305238;19;20276;-81
2023/12/13 00:57:37;;;;;;;25.80;2.83;;;11.60;99.90;;;;;;7284658;19;20686;-81
2023/12/13 01:00:03;;;;;;;18.47;2.73;;;11.60;99.90;;;;;;7285319;19;20198;-80
2023/12/13 01:02:29;;;;;;;14.80;2.50;;;11.50;99.90;;;;;;7284735;19;20191;-80
2023/12/13 01:04:54;;;;;;;21.33;2.50;;;11.50;99.90;;;;;;7285327;19;20203;-80
2023/12/13 01:07:21;;;;;;;17.50;2.40;;;11.60;99.90;;;;;;7284585;19;20187;-80
2023/12/13 01:09:46;;;;;;;13.90;2.67;;;11.70;99.90;;;;;;7284915;19;20195;-80
2023/12/13 01:12:13;;;;;;;20.73;2.57;;;11.60;99.90;;;;;;7300943;19;20230;-79
2023/12/13 01:14:39;;;;;;;19.17;2.70;;;11.60;99.90;;;;;;7304312;19;20183;-80
2023/12/13 01:17:04;;;;;;;15.53;2.10;;;11.70;99.90;;;;;;7285460;19;20193;-80
2023/12/13 01:19:30;;;;;;;21.47;2.60;;;11.70;99.90;;;;;;7284738;19;20276;-80
2023/12/13 01:21:56;;;;;;;17.37;2.90;;;11.70;99.90;;;;;;7284428;19;20284;-80
2023/12/13 01:24:22;;;;;;;15.37;2.47;;;11.60;99.90;;;;;;7284827;19;20247;-80
2023/12/13 01:26:48;;;;;;;17.50;2.93;;;11.60;99.90;;;;;;7286212;19;20184;-80
2023/12/13 01:29:13;;;;;;;18.37;3.33;;;11.50;99.90;;;;;;7288267;19;20212;-80
2023/12/13 01:31:39;;;;;;;20.77;2.80;;;11.60;99.90;;;;;;7306992;19;20652;-80
2023/12/13 01:34:06;;;;;;;19.30;2.47;;;11.60;99.90;;;;;;7284351;19;20259;-80
2023/12/13 01:36:32;;;;;;;22.23;2.60;;;11.60;99.90;;;;;;7284003;19;20186;-80
2023/12/13 01:38:58;;;;;;;16.00;2.77;;;11.60;99.90;;;;;;7284396;19;20207;-80
2023/12/13 01:41:23;;;;;;;21.60;2.73;;;11.60;99.90;;;;;;7284518;19;20214;-81
2023/12/13 01:43:49;;;;;;;17.40;2.70;;;11.60;99.90;;;;;;7284265;19;20183;-83
2023/12/13 01:46:18;;;;;;;21.53;2.77;;;11.60;99.90;;;;;;7284815;19;20211;-80
2023/12/13 01:48:45;;;;;;;17.63;2.57;;;11.60;99.90;;;;;;7283063;19;20230;-80
2023/12/13 01:51:11;;;;;;;19.87;2.90;;;11.50;99.90;;;;;;7305549;19;20202;-81
2023/12/13 01:53:38;;;;;;;16.50;2.43;;;11.50;99.90;;;;;;7290377;19;20289;-80
2023/12/13 01:56:07;;;;;;;23.00;3.03;;;11.50;99.90;;;;;;7291554;19;20190;-80
2023/12/13 01:58:38;;;;;;;23.60;2.57;;;11.50;99.90;;;;;;7291477;19;20189;-80
2023/12/13 02:01:05;;;;;;;14.57;2.47;;;11.60;99.90;;;;;;7290176;19;20191;-80
2023/12/13 02:03:33;;;;;;;19.17;2.40;;;11.60;99.90;;;;;;7290895;19;20203;-80
2023/12/13 02:06:02;;;;;;;17.27;2.53;;;11.60;99.90;;;;;;7290589;19;20208;-80
2023/12/13 02:08:29;;;;;;;13.57;2.93;;;11.70;99.90;;;;;;7288742;19;20547;-81
2023/12/13 02:10:56;;;;;;;16.57;2.57;;;11.60;99.90;;;;;;7290244;19;20672;-80
2023/12/13 02:13:22;;;;;;;16.80;2.33;;;11.60;99.90;;;;;;7288812;19;20565;-80
2023/12/13 02:15:49;;;;;;;23.10;2.70;;;11.60;99.90;;;;;;7291278;19;20203;-80
2023/12/13 02:18:15;;;;;;;17.00;2.33;;;11.40;99.90;;;;;;7294112;19;20181;-80
2023/12/13 02:20:42;;;;;;;15.83;2.17;;;11.40;99.90;;;;;;7314534;19;20678;-80
2023/12/13 02:23:07;;;;;;;19.13;2.57;;;11.40;99.90;;;;;;7292147;19;20188;-80
2023/12/13 02:25:51;;;;;;;18.47;2.70;;;11.30;99.90;;;;;;7292155;19;20203;-80
2023/12/13 02:28:18;;;;;;;19.67;2.67;;;11.40;99.90;;;;;;7187206;19;2004630;-80
2023/12/13 02:30:47;;;;;;;18.97;2.47;;;11.50;99.90;;;;;;7292407;19;20209;-80
2023/12/13 02:33:13;;;;;;;16.70;2.47;;;11.50;99.90;;;;;;7302723;19;20575;-79
2023/12/13 02:35:39;;;;;;;18.30;2.67;;;11.60;99.90;;;;;;7311793;19;20188;-80
2023/12/13 02:38:05;;;;;;;14.43;2.33;;;11.50;99.90;;;;;;7291170;19;20196;-81
2023/12/13 02:40:30;;;;;;;15.90;2.27;;;11.50;99.90;;;;;;7288960;19;20192;-81
2023/12/13 02:42:56;;;;;;;19.57;2.60;;;11.60;99.90;;;;;;7289407;19;20551;-80
2023/12/13 02:45:22;;;;;;;25.17;3.17;;;11.60;99.90;;;;;;7289761;19;20662;-81
2023/12/13 02:47:49;;;;;;;18.53;2.40;;;11.50;99.90;;;;;;7289500;19;20291;-81
2023/12/13 02:50:15;;;;;;;22.33;2.87;;;11.60;99.90;;;;;;7290498;19;20191;-80
2023/12/13 02:52:41;;;;;;;13.33;2.00;;;11.60;99.90;;;;;;7311122;19;20313;-80
2023/12/13 02:55:11;;;;;;;16.00;2.13;;;11.60;99.90;;;;;;7289173;19;20200;-80
2023/12/13 02:57:37;;;;;;;15.10;2.87;;;11.50;99.90;;;;;;7289359;19;20189;-81
2023/12/13 03:00:04;;;;;;;22.07;2.30;;;11.50;99.90;;;;;;7287869;19;20273;-81
2023/12/13 03:02:31;;;;;;;18.43;2.20;;;11.40;99.90;;;;;;7289376;19;20561;-80
2023/12/13 03:04:57;;;;;;;14.97;2.50;;;11.40;99.90;;;;;;7289181;19;20192;-81
2023/12/13 03:07:23;;;;;;;17.23;2.50;;;11.30;99.90;;;;;;7288001;19;20276;-80
2023/12/13 03:09:49;;;;;;;17.93;2.47;;;11.30;99.90;;;;;;7288280;19;20705;-80
2023/12/13 03:12:17;;;;;;;18.33;2.60;;;11.40;99.90;;;;;;7288502;19;20181;-80
2023/12/13 03:14:43;;;;;;;22.53;2.53;;;11.20;99.90;;;;;;7296307;19;20214;-80
2023/12/13 03:17:09;;;;;;;18.50;2.40;;;11.20;99.90;;;;;;7311625;19;20870;-80
2023/12/13 03:19:34;;;;;;;18.70;2.53;;;11.10;99.90;;;;;;7287098;19;20203;-81
2023/12/13 03:22:00;;;;;;;19.77;2.30;;;11.20;99.90;;;;;;7288257;19;20219;-81
2023/12/13 03:24:26;;;;;;;19.07;2.93;;;11.10;99.90;;;;;;7288841;19;20200;-80
2023/12/13 03:26:52;;;;;;;16.07;2.20;;;11.20;99.90;;;;;;7287501;19;20205;-81
2023/12/13 03:29:18;;;;;;;17.03;2.30;;;11.20;99.90;;;;;;7288789;19;20593;-80
2023/12/13 03:31:43;;;;;;;24.80;2.60;;;11.20;99.90;;;;;;7293869;19;20213;-80
2023/12/13 03:34:09;;;;;;;14.13;2.00;;;11.20;99.90;;;;;;7310089;19;21136;-81
2023/12/13 03:36:35;;;;;;;15.63;3.43;;;11.20;99.90;;;;;;7289074;19;20203;-80
2023/12/13 03:39:00;;;;;;;15.83;2.27;;;11.10;99.90;;;;;;7287429;19;20193;-80
2023/12/13 03:41:26;;;;;;;16.00;2.30;;;11.10;99.90;;;;;;7288302;19;20546;-80
2023/12/13 03:43:52;;;;;;;14.37;2.33;;;11.30;99.90;;;;;;7287364;19;20623;-80
2023/12/13 03:46:18;;;;;;;20.67;2.73;;;11.30;99.90;;;;;;7293381;19;20199;-80
2023/12/13 03:48:43;;;;;;;15.70;2.67;;;11.30;99.90;;;;;;7294448;19;20206;-80
2023/12/13 03:51:09;;;;;;;15.97;2.50;;;11.40;99.90;;;;;;7309396;19;20195;-79
2023/12/13 03:53:38;;;;;;;19.93;2.87;;;11.40;99.90;;;;;;7287297;19;20211;-82
2023/12/13 03:56:04;;;;;;;20.33;2.53;;;11.40;99.90;;;;;;7287736;19;20632;-81
2023/12/13 03:58:29;;;;;;;17.50;2.53;;;11.30;99.90;;;;;;7287124;19;20191;-81
2023/12/13 04:00:55;;;;;;;14.60;2.00;;;11.30;99.90;;;;;;7287481;19;20212;-80
2023/12/13 04:03:21;;;;;;;20.67;2.53;;;11.30;99.90;;;;;;7287229;19;20200;-80
2023/12/13 04:05:47;;;;;;;23.80;2.27;;;11.40;99.90;;;;;;7287828;19;20251;-80
2023/12/13 04:08:13;;;;;;;17.17;2.57;;;11.50;99.90;;;;;;7302982;19;20597;-79
2023/12/13 04:10:38;;;;;;;17.50;2.63;;;11.60;99.90;;;;;;7298618;19;20610;-81
2023/12/13 04:13:04;;;;;;;15.63;2.17;;;11.60;99.90;;;;;;7286839;19;20215;-81
2023/12/13 04:15:30;;;;;;;16.93;2.83;;;11.70;99.90;;;;;;7284983;19;20203;-81
2023/12/13 04:17:56;;;;;;;15.27;2.30;;;11.60;99.90;;;;;;7285921;19;20271;-80
2023/12/13 04:20:21;;;;;;;17.50;2.33;;;11.70;99.90;;;;;;7285828;19;20184;-80
2023/12/13 04:22:47;;;;;;;19.13;2.60;;;11.60;99.90;;;;;;7284482;19;20194;-80
2023/12/13 04:25:13;;;;;;;16.93;2.23;;;11.50;99.90;;;;;;7301896;19;20185;-79
2023/12/13 04:27:39;;;;;;;15.93;2.03;;;11.50;99.90;;;;;;7305960;19;20192;-81
2023/12/13 04:30:05;;;;;;;16.90;2.10;;;11.50;99.90;;;;;;7287770;19;20188;-81
2023/12/13 04:32:31;;;;;;;16.33;2.60;;;11.50;99.90;;;;;;7289169;19;20197;-80
2023/12/13 04:34:57;;;;;;;13.93;2.60;;;11.50;99.90;;;;;;7286393;19;20664;-80
2023/12/13 04:37:23;;;;;;;17.23;2.50;;;11.50;99.90;;;;;;7284319;19;20224;-80
2023/12/13 04:39:49;;;;;;;20.20;2.80;;;11.40;99.90;;;;;;7284203;19;20192;-80
2023/12/13 04:42:15;;;;;;;19.23;2.70;;;11.40;99.90;;;;;;7281234;19;20194;-80
2023/12/13 04:44:40;;;;;;;19.53;2.43;;;11.40;99.90;;;;;;7304599;19;20199;-80
2023/12/13 04:47:06;;;;;;;19.27;2.90;;;11.30;99.90;;;;;;7283610;19;20665;-80
2023/12/13 04:49:32;;;;;;;22.43;3.27;;;11.30;99.90;;;;;;7283635;19;20209;-81
2023/12/13 04:51:58;;;;;;;19.23;3.20;;;11.30;99.90;;;;;;7283415;19;20195;-81
2023/12/13 04:54:24;;;;;;;22.17;2.80;;;11.20;99.90;;;;;;7283944;19;20224;-81
2023/12/13 04:56:50;;;;;;;19.63;2.63;;;11.20;99.90;;;;;;7285296;19;20206;-81
2023/12/13 04:59:15;;;;;;;14.50;2.63;;;11.10;99.90;;;;;;7283773;19;20226;-80
2023/12/13 05:01:42;;;;;;;23.60;2.70;;;11.10;99.90;;;;;;7306347;19;20769;-81
2023/12/13 05:04:07;;;;;;;22.20;2.77;;;11.10;99.90;;;;;;7284720;19;20176;-81
2023/12/13 05:06:33;;;;;;;17.97;2.50;;;11.00;99.90;;;;;;7284708;19;20253;-81
2023/12/13 05:08:59;;;;;;;18.03;2.40;;;11.00;99.90;;;;;;7283576;19;20544;-81
2023/12/13 05:11:24;;;;;;;24.60;2.83;;;10.90;99.90;;;;;;7286404;19;20212;-81
2023/12/13 05:13:50;;;;;;;22.27;2.93;;;11.00;99.90;;;;;;7288350;19;20193;-81
2023/12/13 05:16:16;;;;;;;18.00;2.40;;;11.00;99.90;;;;;;7286550;19;20205;-80
2023/12/13 05:18:42;;;;;;;19.87;2.93;;;11.00;99.90;;;;;;7305656;19;20196;-81
2023/12/13 05:21:07;;;;;;;16.40;2.60;;;11.00;99.90;;;;;;7284294;19;20218;-80
2023/12/13 05:23:33;;;;;;;18.27;2.83;;;10.90;99.90;;;;;;7284593;19;20655;-82
2023/12/13 05:25:59;;;;;;;22.63;3.17;;;10.90;99.90;;;;;;7283484;19;20266;-80
2023/12/13 05:28:25;;;;;;;18.30;2.60;;;10.90;99.90;;;;;;7282835;19;20214;-81
2023/12/13 05:30:50;;;;;;;20.17;2.80;;;10.90;99.90;;;;;;7284973;19;20208;-81
2023/12/13 05:33:16;;;;;;;16.97;2.83;;;10.90;99.90;;;;;;7283969;19;20998;-81
2023/12/13 05:35:42;;;;;;;18.60;2.60;;;10.80;99.90;;;;;;7307961;19;20191;-81
2023/12/13 05:38:07;;;;;;;21.60;2.97;;;10.80;99.90;;;;;;7284104;19;20204;-82
2023/12/13 05:40:33;;;;;;;21.73;2.90;;;10.90;99.90;;;;;;7286334;19;20312;-81
2023/12/13 05:43:00;;;;;;;23.43;2.77;;;11.00;99.90;;;;;;7285268;19;20192;-81
2023/12/13 05:45:26;;;;;;;18.17;3.23;;;11.00;99.90;;;;;;7283968;19;20192;-81
2023/12/13 05:47:52;;;;;;;20.77;3.03;;;11.00;99.90;;;;;;7283646;19;20198;-82
2023/12/13 05:50:18;;;;;;;18.40;3.00;;;10.80;99.90;;;;;;7285431;19;20207;-81
2023/12/13 05:52:44;;;;;;;18.93;2.63;;;10.90;99.90;;;;;;7290547;19;20191;-80
2023/12/13 05:55:13;;;;;;;19.67;3.57;;;11.00;99.90;;;;;;7306339;19;20304;-81
2023/12/13 05:57:39;;;;;;;19.93;2.90;;;10.90;99.90;;;;;;7283821;19;20200;-80
2023/12/13 06:00:06;;;;;;;16.47;2.33;;;11.00;99.90;;;;;;7281789;19;20196;-81
2023/12/13 06:02:36;;;;;;;16.87;2.70;;;11.00;99.90;;;;;;7283492;19;20196;-81
2023/12/13 06:05:05;;;;;;;18.40;2.93;;;11.00;99.90;;;;;;7282714;19;20203;-81
2023/12/13 06:07:31;;;;;;;18.67;2.73;;;10.80;99.90;;;;;;7281163;19;20191;-81
2023/12/13 06:09:56;;;;;;;24.30;3.30;;;10.80;99.90;;;;;;7279726;19;20206;-82
2023/12/13 06:12:22;;;;;;;18.13;3.50;;;10.70;99.90;;;;;;7282510;19;20191;-81
2023/12/13 06:14:48;;;;;;;16.97;2.87;;;10.80;99.90;;;;;;7282987;19;20582;-81
2023/12/13 06:17:14;;;;;;;16.30;2.70;;;10.80;99.90;;;;;;7292737;19;20224;-85
2023/12/13 06:19:40;;;;;;;17.13;3.10;;;10.90;99.90;;;;;;7303102;19;20673;-82
2023/12/13 06:22:07;;;;;;;16.97;2.70;;;11.00;99.90;;;;;;7282334;19;20199;-81
2023/12/13 06:24:33;;;;;;;20.83;3.07;;;11.00;99.90;;;;;;7283689;19;20199;-82
2023/12/13 06:26:59;;;;;;;24.93;3.13;;;11.10;99.90;;;;;;7282719;19;20594;-81
2023/12/13 06:29:25;;;;;;;17.27;2.97;;;11.00;99.90;;;;;;7283306;19;20188;-82
2023/12/13 06:31:51;;;;;;;28.63;2.87;;;11.00;99.90;;;;;;7281910;19;20243;-81
2023/12/13 06:34:17;;;;;;;20.93;3.10;;;11.00;99.90;;;;;;7281926;19;20189;-81
2023/12/13 06:36:42;;;;;;;18.23;3.23;;;11.10;99.90;;;;;;7303323;19;20205;-79
2023/12/13 06:39:11;;;;;;;26.17;3.20;;;11.00;99.90;;;;;;7286824;19;20199;-81
2023/12/13 06:41:37;;;;;;;18.23;2.67;;;11.00;99.90;;;;;;7291952;19;20617;-81
2023/12/13 06:44:03;;;;;;;22.77;2.67;;;11.00;99.90;;;;;;7290158;19;20209;-82
2023/12/13 06:46:29;;;;;;;17.80;3.17;;;11.00;99.90;;;;;;7288598;19;20774;-81
2023/12/13 06:48:55;;;;;;;19.93;2.70;;;11.00;99.90;;;;;;7288233;19;20195;-81
2023/12/13 06:51:21;;;;;;;22.43;2.97;;;11.00;99.90;;;;;;7287978;19;20245;-81
2023/12/13 06:53:47;;;;;;;22.30;3.20;;;11.00;99.90;;;;;;7287290;19;20577;-81
2023/12/13 06:56:13;;;;;;;14.63;2.23;;;11.00;99.90;;;;;;7307360;19;20187;-79
2023/12/13 06:58:39;;;;;;;16.50;2.80;;;10.90;99.90;;;;;;7301220;19;20194;-81
2023/12/13 07:01:05;;;;;;;15.67;2.60;;;11.00;99.90;;;;;;7288143;19;20238;-82
2023/12/13 07:03:31;;;;;;;23.30;3.58;;;10.90;99.90;;;;;;7288690;19;20758;-82
2023/12/13 07:05:57;;;;;;;14.30;2.80;;;10.80;99.90;;;;;;7288193;19;20255;-82
2023/12/13 07:08:22;;;;;;;20.70;2.70;;;10.70;99.90;;;;;;7285645;19;20909;-81
2023/12/13 07:10:48;;;;;;;17.07;2.47;;;10.70;99.90;;;;;;7287644;19;20202;-81
2023/12/13 07:13:14;;;;;;;20.13;3.07;;;10.70;99.90;;;;;;7292796;19;20190;-81
2023/12/13 07:15:40;;;;;;;15.10;2.53;;;10.70;99.90;;;;;;7312019;19;20194;-82
2023/12/13 07:18:06;;;;;;;17.67;4.30;;;10.70;99.90;;;;;;7287523;19;20552;-82
2023/12/13 07:20:31;;;;;;;21.13;3.53;;;10.80;99.90;;;;;;7287963;19;20192;-82
2023/12/13 07:22:58;;;;;;;16.00;2.23;;;10.90;99.90;;;;;;7288444;19;20529;-81
2023/12/13 07:25:23;;;;;;;15.30;2.40;;;10.90;99.90;;;;;;7288955;19;20658;-82
2023/12/13 07:27:49;;;;;;;18.43;2.30;;;10.80;99.90;;;;;;7287616;19;20212;-82
2023/12/13 07:30:15;;;;;;;19.60;2.30;;;10.80;99.90;;;;;;7287681;19;21022;-81
2023/12/13 07:32:43;;;;;;;17.20;2.63;;;10.70;99.90;;;;;;7309356;19;20203;-82
2023/12/13 07:35:10;;;;;;;15.90;2.80;;;10.60;99.90;;;;;;7289109;19;20187;-82
2023/12/13 07:37:36;;;;;;;16.13;2.90;;;10.50;99.90;;;;;;7288277;19;20197;-82
2023/12/13 07:40:06;;;;;;;14.50;2.30;;;10.60;99.90;;;;;;7286252;19;20208;-82
2023/12/13 07:42:33;;;;;;;13.20;2.17;;;10.60;99.90;;;;;;7288469;19;20191;-82
2023/12/13 07:44:58;;;;;;;23.23;3.00;;;10.60;99.90;;;;;;7287639;19;20184;-82
2023/12/13 07:47:25;;;;;;;16.93;2.70;;;10.50;99.90;;;;;;7288687;19;20256;-82
2023/12/13 07:49:51;;;;;;;12.43;2.60;;;10.60;99.90;;;;;;7285654;19;20587;-82
2023/12/13 07:52:17;;;;;;;20.60;2.67;;;10.60;99.90;;;;;;7287307;19;20188;-81
2023/12/13 07:54:43;;;;;;;20.67;2.63;;;10.70;99.90;;;;;;7307843;19;20303;-79
2023/12/13 07:57:09;;;;;;;16.50;2.80;;;10.70;99.90;;;;;;7299739;19;20190;-82
2023/12/13 07:59:35;;;;;;;12.27;2.40;;;10.70;99.90;;;;;;7286803;19;20203;-82
2023/12/13 08:02:01;;;;;;;14.13;2.30;;;10.60;99.90;;;;;;7287611;19;21073;-81
2023/12/13 08:04:27;;;;;;;14.80;2.93;;;10.70;99.90;;;;;;7287937;19;20191;-81
2023/12/13 08:06:53;;;;;;;14.13;4.57;;;10.70;99.90;;;;;;7289657;19;20187;-82
2023/12/13 08:09:19;;;;;;;15.17;2.43;;;10.70;99.90;;;;;;7290303;19;20196;-81
2023/12/13 08:11:49;;;;;;;21.17;3.20;;;10.80;99.90;;;;;;7286443;19;20268;-81
2023/12/13 08:14:15;;;;;;;17.40;2.50;;;10.80;99.90;;;;;;7285297;19;20190;-79
2023/12/13 08:16:41;;;;;;;13.97;2.67;;;10.80;99.90;;;;;;7307940;19;20208;-80
2023/12/13 08:19:07;;;;;;;14.23;3.13;;;10.90;99.90;;;;;;7286203;19;20185;-80
2023/12/13 08:21:33;;;;;;;15.30;2.83;;;10.90;99.90;;;;;;7286456;19;20197;-79
2023/12/13 08:23:59;;;;;;;15.23;2.83;;;10.90;99.90;;;;;;7286407;19;20220;-79
2023/12/13 08:26:27;;;;;;;21.10;3.27;;;10.90;99.90;;;;;;7284074;19;20191;-79
2023/12/13 08:28:53;;;;;;;14.77;2.77;;;10.70;99.90;;;;;;7286404;19;20190;-80
2023/12/13 08:31:19;;;;;;;13.83;2.90;;;10.60;99.90;;;;;;7284807;19;20886;-79
2023/12/13 08:33:45;;;;;;;19.30;5.07;;;10.70;99.90;;;;;;7288068;19;20187;-80
2023/12/13 08:36:11;;;;;;;14.60;3.73;;;10.90;99.90;;;;;;7306852;19;20187;-80
2023/12/13 08:38:40;;;;;;;17.37;3.03;;;10.90;99.90;;;;;;7284098;19;20200;-80
2023/12/13 08:41:11;;;;;;;15.97;3.03;;;10.90;99.90;;;;;;7284984;19;20666;-79
2023/12/13 08:43:41;;;;;;;15.80;3.10;;;10.90;99.90;;;;;;7285356;19;20237;-80
2023/12/13 08:46:06;;;;;;;20.70;3.07;;;10.90;99.90;;;;;;7285695;19;20191;-80
2023/12/13 08:48:33;;;;;;;13.63;2.60;;;10.90;99.90;;;;;;7284122;19;20196;-80
2023/12/13 08:50:59;;;;;;;15.10;2.83;;;10.90;99.90;;;;;;7285271;19;20182;-80
2023/12/13 08:53:24;;;;;;;17.87;3.73;;;11.00;99.90;;;;;;7284590;19;20204;-80
2023/12/13 08:55:51;;;;;;;17.63;6.30;;;11.00;99.90;;;;;;7284304;19;20534;-80
2023/12/13 08:58:16;;;;;;;16.23;3.10;;;11.10;99.90;;;;;;7283791;19;20195;-79
2023/12/13 09:00:42;;;;;;;15.13;2.90;;;11.10;99.90;;;;;;7303985;19;20203;-80
2023/12/13 09:03:08;;;;;;;17.67;3.07;;;11.20;99.90;;;;;;7284905;19;20199;-80
2023/12/13 09:05:35;;;;;;;15.30;3.07;;;11.20;99.90;;;;;;7284079;19;20193;-80
2023/12/13 09:08:01;;;;;;;22.27;3.30;;;11.20;99.90;;;;;;7283468;19;20320;-81
2023/12/13 09:10:27;;;;;;;15.57;3.07;;;11.20;99.90;;;;;;7286155;19;20657;-80
2023/12/13 09:12:53;;;;;;;17.43;3.30;;;11.20;99.90;;;;;;7284736;19;20197;-80
2023/12/13 09:15:19;;;;;;;14.43;2.57;;;11.30;99.90;;;;;;7277039;19;20199;-80
2023/12/13 09:17:47;;;;;;;15.37;3.10;;;11.30;99.90;;;;;;7284500;19;20303;-79
2023/12/13 09:20:16;;;;;;;14.60;2.80;;;11.30;99.90;;;;;;7299040;19;20217;-77
2023/12/13 09:22:43;;;;;;;16.27;2.80;;;11.40;99.90;;;;;;7302256;19;20590;-80
2023/12/13 09:25:13;;;;;;;13.40;2.90;;;11.50;99.90;;;;;;7280121;19;20590;-80
2023/12/13 09:27:38;;;;;;;20.83;3.07;;;11.60;99.90;;;;;;7279862;19;20190;-80
2023/12/13 09:30:05;;;;;;;15.90;3.03;;;11.50;99.90;;;;;;7278698;19;20192;-80
2023/12/13 09:32:33;;;;;;;16.53;2.90;;;11.60;99.90;;;;;;7278030;19;20199;-79
2023/12/13 09:34:59;;;;;;;13.20;2.80;;;11.70;99.90;;;;;;7279856;19;20256;-80
2023/12/13 09:37:25;;;;;;;14.23;2.90;;;11.60;99.90;;;;;;7277855;19;20192;-80
2023/12/13 09:39:51;;;;;;;14.83;2.90;;;11.60;99.90;;;;;;7278903;19;20192;-81
2023/12/13 09:42:17;;;;;;;15.23;2.60;;;11.70;99.90;;;;;;7278728;19;20673;-80
2023/12/13 09:44:44;;;;;;;18.80;3.13;;;11.70;99.90;;;;;;7299104;19;20187;-78
2023/12/13 09:47:13;;;;;;;12.70;2.90;;;11.70;99.90;;;;;;7295236;19;20192;-81
2023/12/13 09:49:40;;;;;;;13.60;3.23;;;11.70;99.90;;;;;;7280104;19;20680;-80
2023/12/13 09:52:08;;;;;;;14.20;3.17;;;11.90;99.90;;;;;;7278534;19;20200;-80
2023/12/13 09:54:37;;;;;;;16.73;2.87;;;11.90;99.90;;;;;;7278307;19;20209;-81
2023/12/13 09:57:04;;;;;;;13.80;3.43;;;12.00;99.90;;;;;;7279184;19;20535;-80
2023/12/13 09:59:30;;;;;;;14.30;3.40;;;12.10;99.90;;;;;;7277761;19;20195;-80
2023/12/13 10:01:59;;;;;;;16.13;2.70;;;12.20;99.90;;;;;;7277947;19;20200;-80
2023/12/13 10:04:28;;;;;;;11.60;3.03;;;12.20;99.90;;;;;;7276794;19;20190;-80
2023/12/13 10:06:54;;;;;;;15.13;2.67;;;12.30;99.90;;;;;;7277652;19;20411;-80
2023/12/13 10:09:20;;;;;;;10.37;2.63;;;12.20;99.90;;;;;;7277745;19;20203;-80
2023/12/13 10:11:46;;;;;;;11.63;2.87;;;12.10;99.90;;;;;;7277304;19;20586;-80
2023/12/13 10:14:12;;;;;;;13.93;2.93;;;12.20;99.90;;;;;;7303556;19;20231;-80
2023/12/13 10:16:41;;;;;;;12.87;2.80;;;12.20;99.90;;;;;;7282657;19;20204;-81
2023/12/13 10:19:07;;;;;;;12.83;2.63;;;12.30;99.90;;;;;;7285089;19;20293;-80
2023/12/13 10:21:36;;;;;;;12.43;2.83;;;12.20;99.90;;;;;;7285150;19;20196;-80
2023/12/13 10:24:05;;;;;;;9.60;3.00;;;12.30;99.90;;;;;;7284250;19;20657;-80
2023/12/13 10:26:38;;;;;;;13.73;2.80;;;12.30;99.90;;;;;;7283282;19;20192;-79
2023/12/13 10:29:04;;;;;;;15.63;3.10;;;12.20;99.90;;;;;;7284600;19;20258;-79
2023/12/13 10:31:33;;;;;;;14.17;2.93;;;12.20;99.90;;;;;;7284536;19;20205;-79
2023/12/13 10:33:59;;;;;;;12.40;3.73;;;12.10;99.90;;;;;;7283913;19;20199;-80
2023/12/13 10:36:26;;;;;;;12.07;3.47;;;12.10;99.90;;;;;;7284108;19;20196;-82
2023/12/13 10:38:54;;;;;;;16.00;3.30;;;12.20;99.90;;;;;;7279779;19;20272;-78
2023/12/13 10:41:28;;;;;;;14.77;2.97;;;12.20;99.90;;;;;;7284168;19;20192;-78
2023/12/13 10:43:58;;;;;;;17.20;3.20;;;12.20;99.90;;;;;;7283250;19;20192;-79
2023/12/13 10:46:31;;;;;;;11.27;3.30;;;12.20;99.90;;;;;;7282983;19;20198;-79
2023/12/13 10:48:59;;;;;;;12.57;3.47;;;12.20;99.90;;;;;;7282053;19;20193;-80
2023/12/13 10:51:26;;;;;;;16.33;3.40;;;12.30;99.90;;;;;;7284653;19;20194;-79
2023/12/13 10:53:52;;;;;;;14.20;3.80;;;12.20;99.90;;;;;;7284328;19;20255;-79
2023/12/13 10:56:19;;;;;;;12.23;3.20;;;12.10;99.90;;;;;;7285847;19;20184;-79
2023/12/13 10:58:45;;;;;;;14.23;3.67;;;12.10;99.90;;;;;;7290847;19;20692;-79
2023/12/13 11:01:12;;;;;;;17.63;4.33;;;12.20;99.90;;;;;;7305473;19;20208;-80
2023/12/13 11:03:57;;;;;;;14.93;3.70;;;12.10;99.90;;;;;;7281431;19;20191;-80
2023/12/13 11:06:23;;;;;;;15.30;3.90;;;12.10;99.90;;;;;;7178849;19;2004566;-80
2023/12/13 11:08:48;;;;;;;14.60;3.70;;;12.20;99.90;;;;;;7282965;19;20203;-80
2023/12/13 11:11:16;;;;;;;12.03;3.90;;;12.30;99.90;;;;;;7290170;19;20813;-80
2023/12/13 11:13:53;;;;;;;15.33;4.37;;;12.30;99.90;;;;;;7304728;19;20183;-81
2023/12/13 11:16:21;;;;;;;19.10;3.70;;;12.50;99.90;;;;;;7177438;19;2004512;-80
2023/12/13 11:18:49;;;;;;;17.67;4.03;;;12.60;99.90;;;;;;7281947;19;20260;-81
2023/12/13 11:21:25;;;;;;;11.67;3.37;;;12.70;99.90;;;;;;7286037;19;20185;-80
2023/12/13 11:23:54;;;;;;;12.83;3.53;;;12.70;99.90;;;;;;7282638;19;20188;-80
2023/12/13 11:26:24;;;;;;;16.53;3.83;;;12.60;99.90;;;;;;7280018;19;20188;-80
2023/12/13 11:28:51;;;;;;;13.20;4.00;;;12.70;99.90;;;;;;7283011;19;20214;-80
2023/12/13 11:31:24;;;;;;;11.40;3.97;;;12.80;99.90;;;;;;7282707;19;20690;-80
2023/12/13 11:33:54;;;;;;;16.60;4.10;;;13.00;99.90;;;;;;7282583;19;20200;-80
2023/12/13 11:36:25;;;;;;;14.17;3.90;;;13.20;99.90;;;;;;7281677;19;20189;-81
2023/12/13 11:38:53;;;;;;;16.63;4.50;;;13.30;99.90;;;;;;7282550;19;20195;-81
2023/12/13 11:41:19;;;;;;;13.43;3.50;;;13.30;99.90;;;;;;7281984;19;20186;-81
2023/12/13 11:43:46;;;;;;;9.00;3.27;;;13.30;99.90;;;;;;7284917;19;20189;-81
2023/12/13 11:46:12;;;;;;;12.37;3.40;;;13.30;99.90;;;;;;7303644;19;20182;-81
2023/12/13 11:48:38;;;;;;;14.87;3.60;;;13.50;99.90;;;;;;7283167;19;20225;-82
2023/12/13 11:51:04;;;;;;;11.70;3.50;;;13.50;99.90;;;;;;7369277;19;21486;-82
2023/12/13 11:53:30;;;;;;;10.90;3.07;;;13.40;99.90;;;;;;7307328;19;20304;-82
2023/12/13 11:55:56;;;;;;;11.07;3.50;;;13.50;99.90;;;;;;7286673;19;20222;-82
2023/12/13 11:58:22;;;;;;;12.60;3.67;;;13.50;99.90;;;;;;7286481;19;20213;-82
2023/12/13 12:00:48;;;;;;;13.37;4.13;;;13.50;99.90;;;;;;7286909;19;20272;-81
2023/12/13 12:03:14;;;;;;;10.97;3.60;;;13.40;99.90;;;;;;7301326;19;20198;-80
2023/12/13 12:05:43;;;;;;;14.17;3.27;;;13.40;99.90;;;;;;7302096;19;20649;-83
2023/12/13 12:08:11;;;;;;;10.33;3.23;;;13.30;99.90;;;;;;7283895;19;20197;-84
2023/12/13 12:10:37;;;;;;;13.13;3.40;;;13.20;99.90;;;;;;7286404;19;20195;-84
2023/12/13 12:13:03;;;;;;;10.93;3.40;;;13.20;99.90;;;;;;7286326;19;21087;-83
2023/12/13 12:15:32;;;;;;;10.77;3.93;;;13.30;99.90;;;;;;7283374;19;20200;-83
2023/12/13 12:17:59;;;;;;;9.43;3.27;;;13.30;99.90;;;;;;7282054;19;20274;-83
2023/12/13 12:20:26;;;;;;;10.83;3.50;;;13.30;99.90;;;;;;7286523;19;20196;-83
2023/12/13 12:22:52;;;;;;;10.53;3.67;;;13.10;99.90;;;;;;7285234;19;20192;-83
2023/12/13 12:25:20;;;;;;;11.70;3.73;;;13.10;99.90;;;;;;7285649;19;20229;-83
2023/12/13 12:27:49;;;;;;;7.80;3.80;;;12.80;99.90;;;;;;7286576;19;20196;-83
2023/12/13 12:30:18;;;;;;;13.83;3.97;;;12.70;99.90;;;;;;7298528;19;20193;-82
2023/12/13 12:32:47;;;;;;;10.87;3.73;;;12.70;99.90;;;;;;7299750;19;20185;-81